Statesville, North Carolina
Current Conditions -  °F | °C
As of 3:15 AM on Friday 28 Nov 2014 (Local Time) from KSVH Reporting Station
Clear Clear  
Wind Chill: 29°   Ceiling: Unl
Heat Index: 29°   Visibility: 10mi
Dew Point: 19°   Wind: 0mph
Humidity: 66%   Direction: NA
Pressure: 30.3"   Gusts: NA
Location:  35.79°N, 80.89°W
Report Text: KSVH 280815Z AUTO 00000KT 10SM CLR M02/M07 A3030 RMK AO2 T10161072
Loading
Personal Weather Stations






























Interactive Weather Map New forecast layout! Learn more

10-Day Weather Forecast

Advertisements
Track Severe Weather on mobile